createdAt,value
2023-04-21T00:00:29.618Z,1.90
2023-04-21T00:02:57.176Z,2.00
2023-04-21T00:05:25.337Z,2.08
2023-04-21T00:07:52.700Z,1.85
2023-04-21T00:10:20.056Z,1.70
2023-04-21T00:12:47.503Z,2.00
2023-04-21T00:15:14.953Z,2.13
2023-04-21T00:17:42.327Z,2.10
2023-04-21T00:20:10.794Z,1.90
2023-04-21T00:22:38.270Z,2.20
2023-04-21T00:25:06.115Z,2.13
2023-04-21T00:27:33.492Z,2.10
2023-04-21T00:30:00.860Z,2.20
2023-04-21T00:32:28.212Z,2.05
2023-04-21T00:34:57.936Z,2.17
2023-04-21T00:37:25.580Z,2.40
2023-04-21T00:39:53.017Z,2.30
2023-04-21T00:42:20.793Z,2.33
2023-04-21T00:44:48.168Z,2.20
2023-04-21T00:47:15.482Z,2.50
2023-04-21T00:49:43.098Z,2.40
2023-04-21T00:52:11.445Z,2.35
2023-04-21T00:54:40.096Z,2.40
2023-04-21T00:57:08.056Z,2.10
2023-04-21T00:59:38.715Z,2.10
2023-04-21T01:02:06.292Z,2.38
2023-04-21T01:04:38.921Z,2.50
2023-04-21T01:07:07.889Z,2.35
2023-04-21T01:09:35.322Z,2.20
2023-04-21T01:12:10.323Z,2.10
2023-04-21T01:14:39.246Z,2.65
2023-04-21T01:17:08.090Z,2.33
2023-04-21T01:19:40.356Z,2.50
2023-04-21T01:22:12.328Z,2.70
2023-04-21T01:24:45.492Z,2.38
2023-04-21T01:27:15.653Z,2.38
2023-04-21T01:29:43.864Z,2.53
2023-04-21T01:32:14.849Z,2.55
2023-04-21T01:34:43.268Z,2.50
2023-04-21T01:37:16.718Z,2.35
2023-04-21T01:39:48.286Z,2.80
2023-04-21T01:42:15.700Z,2.55
2023-04-21T01:44:43.175Z,2.80
2023-04-21T01:47:11.401Z,2.70
2023-04-21T01:49:40.297Z,3.00
2023-04-21T01:52:08.258Z,2.85
2023-04-21T01:54:36.060Z,3.10
2023-04-21T01:57:04.174Z,3.25
2023-04-21T01:59:31.584Z,2.63
2023-04-21T02:01:59.240Z,3.03
2023-04-21T02:04:26.801Z,3.03
2023-04-21T02:06:54.220Z,3.17
2023-04-21T02:09:21.717Z,2.90
2023-04-21T02:11:49.300Z,2.80
2023-04-21T02:14:17.670Z,3.22
2023-04-21T02:16:45.142Z,2.92
2023-04-21T02:19:12.589Z,2.78
2023-04-21T02:21:39.981Z,2.80
2023-04-21T02:24:07.654Z,3.00
2023-04-21T02:26:35.121Z,3.00
2023-04-21T02:29:03.064Z,2.80
2023-04-21T02:31:31.277Z,2.88
2023-04-21T02:33:59.529Z,2.88
2023-04-21T02:36:26.894Z,3.00
2023-04-21T02:38:57.984Z,2.90
2023-04-21T02:41:25.247Z,3.00
2023-04-21T02:43:52.574Z,2.95
2023-04-21T02:46:22.555Z,2.83
2023-04-21T02:48:50.005Z,3.00
2023-04-21T02:51:17.422Z,2.55
2023-04-21T02:53:44.895Z,2.88
2023-04-21T02:56:12.121Z,2.88
2023-04-21T02:58:39.692Z,3.00
2023-04-21T03:01:07.077Z,2.80
2023-04-21T03:03:36.214Z,3.03
2023-04-21T03:06:05.475Z,2.83
2023-04-21T03:08:32.947Z,3.08
2023-04-21T03:11:00.273Z,3.03
2023-04-21T03:13:27.540Z,3.10
2023-04-21T03:15:54.844Z,2.97
2023-04-21T03:18:22.125Z,3.00
2023-04-21T03:20:50.834Z,3.30
2023-04-21T03:23:18.352Z,2.88
2023-04-21T03:25:45.688Z,2.85
2023-04-21T03:28:13.592Z,3.30
2023-04-21T03:30:40.988Z,3.10
2023-04-21T03:33:08.259Z,2.80
2023-04-21T03:35:35.623Z,3.05
2023-04-21T03:38:04.161Z,2.97
2023-04-21T03:40:31.695Z,3.00
2023-04-21T03:42:59.069Z,3.17
2023-04-21T03:45:26.584Z,3.40
2023-04-21T03:47:55.424Z,3.40
2023-04-21T03:50:23.452Z,3.03
2023-04-21T03:52:50.667Z,3.17
2023-04-21T03:55:18.020Z,3.45
2023-04-21T03:57:45.340Z,3.50
2023-04-21T04:00:13.750Z,4.00
2023-04-21T04:02:41.244Z,3.63
2023-04-21T04:05:08.802Z,3.50
2023-04-21T04:07:36.207Z,3.70
2023-04-21T04:10:03.895Z,3.83
2023-04-21T04:12:31.171Z,3.83
2023-04-21T04:14:58.380Z,3.58
2023-04-21T04:17:25.652Z,3.58
2023-04-21T04:19:52.865Z,3.78
2023-04-21T04:22:20.283Z,3.85
2023-04-21T04:24:47.858Z,3.53
2023-04-21T04:27:15.182Z,4.03
2023-04-21T04:29:43.980Z,3.78
2023-04-21T04:32:11.470Z,3.80
2023-04-21T04:34:38.758Z,3.97
2023-04-21T04:37:06.698Z,4.10
2023-04-21T04:39:34.057Z,4.28
2023-04-21T04:42:01.519Z,4.25
2023-04-21T04:44:29.292Z,4.10
2023-04-21T04:46:56.885Z,4.40
2023-04-21T04:49:24.375Z,4.20
2023-04-21T04:51:52.056Z,4.38
2023-04-21T04:54:19.677Z,4.00
2023-04-21T04:56:47.093Z,4.95
2023-04-21T04:59:14.400Z,4.82
2023-04-21T05:01:42.040Z,4.20
2023-04-21T05:04:09.668Z,4.50
2023-04-21T05:06:37.317Z,4.63
2023-04-21T05:09:04.910Z,4.50
2023-04-21T05:11:32.330Z,4.70
2023-04-21T05:13:59.604Z,5.13
2023-04-21T05:16:26.846Z,5.20
2023-04-21T05:18:54.178Z,4.70
2023-04-21T05:21:28.472Z,5.32
2023-04-21T05:23:56.583Z,5.03
2023-04-21T05:26:25.725Z,4.90
2023-04-21T05:28:53.891Z,5.18
2023-04-21T05:31:21.241Z,5.53
2023-04-21T05:33:48.539Z,5.72
2023-04-21T05:36:16.004Z,4.68
2023-04-21T05:38:43.331Z,5.43
2023-04-21T05:41:10.695Z,5.00
2023-04-21T05:43:37.990Z,4.93
2023-04-21T05:46:10.501Z,5.35
2023-04-21T05:48:37.833Z,5.65
2023-04-21T05:51:10.838Z,5.07
2023-04-21T05:53:39.303Z,5.20
2023-04-21T05:56:08.390Z,5.68
2023-04-21T05:58:36.307Z,4.95
2023-04-21T06:01:04.498Z,5.25
2023-04-21T06:03:32.489Z,4.75
2023-04-21T06:06:01.268Z,4.82
2023-04-21T06:08:28.574Z,4.20
2023-04-21T06:10:55.880Z,4.82
2023-04-21T06:13:23.341Z,4.00
2023-04-21T06:15:50.620Z,4.07
2023-04-21T06:18:17.887Z,4.57
2023-04-21T06:20:54.359Z,4.50
2023-04-21T06:23:22.030Z,4.03
2023-04-21T06:26:04.794Z,5.07
2023-04-21T06:28:32.694Z,4.53
2023-04-21T06:31:07.749Z,5.22
2023-04-21T06:33:36.118Z,4.57
2023-04-21T06:36:03.540Z,4.85
2023-04-21T06:38:30.935Z,5.07
2023-04-21T06:40:58.323Z,5.15
2023-04-21T06:43:25.727Z,5.10
2023-04-21T06:45:53.496Z,4.90
2023-04-21T06:48:20.949Z,4.32
2023-04-21T06:50:48.251Z,4.40
2023-04-21T06:53:17.952Z,3.88
2023-04-21T06:55:45.364Z,2.97
2023-04-21T06:58:12.626Z,3.50
2023-04-21T07:00:40.157Z,3.00
2023-04-21T07:03:07.585Z,3.10
2023-04-21T07:05:34.992Z,3.10
2023-04-21T07:08:02.447Z,2.60
2023-04-21T07:10:29.837Z,2.83
2023-04-21T07:12:57.189Z,2.92
2023-04-21T07:15:24.459Z,2.92
2023-04-21T07:17:52.031Z,2.90
2023-04-21T07:20:19.348Z,3.20
2023-04-21T07:22:46.718Z,2.92
2023-04-21T07:25:14.029Z,3.42
2023-04-21T07:27:41.380Z,2.55
2023-04-21T07:30:09.082Z,2.80
2023-04-21T07:32:38.527Z,3.15
2023-04-21T07:35:06.816Z,3.03
2023-04-21T07:37:34.131Z,2.70
2023-04-21T07:40:01.674Z,3.30
2023-04-21T07:42:28.968Z,3.20
2023-04-21T07:44:57.456Z,3.13
2023-04-21T07:47:25.134Z,3.00
2023-04-21T07:49:52.581Z,2.80
2023-04-21T07:52:19.860Z,3.05
2023-04-21T07:54:47.269Z,3.05
2023-04-21T07:57:14.630Z,2.95
2023-04-21T07:59:42.498Z,3.17
2023-04-21T08:02:09.997Z,2.88
2023-04-21T08:04:37.795Z,3.40
2023-04-21T08:07:05.539Z,3.30
2023-04-21T08:09:32.797Z,3.22
2023-04-21T08:12:00.172Z,3.45
2023-04-21T08:14:28.021Z,3.25
2023-04-21T08:16:57.160Z,3.58
2023-04-21T08:19:25.525Z,3.80
2023-04-21T08:21:52.952Z,3.72
2023-04-21T08:24:20.676Z,3.72
2023-04-21T08:26:48.143Z,3.60
2023-04-21T08:29:15.595Z,3.63
2023-04-21T08:31:43.101Z,3.85
2023-04-21T08:34:10.679Z,3.80
2023-04-21T08:36:38.086Z,3.58
2023-04-21T08:39:05.391Z,3.65
2023-04-21T08:41:32.979Z,3.75
2023-04-21T08:44:00.458Z,4.28
2023-04-21T08:46:28.508Z,3.78
2023-04-21T08:48:58.835Z,3.72
2023-04-21T08:51:28.524Z,3.80
2023-04-21T08:53:56.223Z,4.40
2023-04-21T08:56:27.449Z,4.03
2023-04-21T08:58:54.873Z,4.03
2023-04-21T09:01:22.454Z,4.10
2023-04-21T09:03:49.932Z,3.90
2023-04-21T09:06:18.316Z,4.00
2023-04-21T09:08:55.917Z,4.10
2023-04-21T09:11:23.507Z,4.15
2023-04-21T09:13:51.130Z,4.03
2023-04-21T09:16:21.722Z,4.07
2023-04-21T09:18:50.819Z,4.03
2023-04-21T09:21:19.198Z,4.22
2023-04-21T09:23:53.527Z,4.30
2023-04-21T09:26:24.871Z,4.32
2023-04-21T09:28:53.154Z,4.50
2023-04-21T09:31:24.616Z,3.95
2023-04-21T09:33:59.503Z,3.90
2023-04-21T09:36:30.377Z,3.20
2023-04-21T09:39:29.197Z,3.90
2023-04-21T09:41:50.139Z,3.50
2023-04-21T09:44:18.195Z,3.97
2023-04-21T09:46:52.173Z,4.53
2023-04-21T09:49:22.759Z,3.97
2023-04-21T09:52:16.897Z,4.40
2023-04-21T09:54:48.860Z,4.10
2023-04-21T09:57:25.398Z,4.18
2023-04-21T10:00:01.582Z,4.55
2023-04-21T10:02:31.535Z,4.28
2023-04-21T10:04:59.332Z,4.32
2023-04-21T10:07:26.937Z,4.50
2023-04-21T10:09:59.227Z,4.15
2023-04-21T10:12:30.734Z,3.90
2023-04-21T10:14:58.098Z,3.58
2023-04-21T10:17:26.671Z,3.97
2023-04-21T10:19:58.897Z,3.80
2023-04-21T10:22:33.866Z,3.63
2023-04-21T10:25:04.010Z,3.97
2023-04-21T10:27:43.030Z,3.40
2023-04-21T10:30:26.122Z,3.70
2023-04-21T10:33:04.893Z,3.63
2023-04-21T10:36:04.871Z,3.38
2023-04-21T10:38:43.226Z,3.45
2023-04-21T10:41:30.027Z,3.95
2023-04-21T10:44:00.758Z,3.58
2023-04-21T10:46:39.470Z,3.40
2023-04-21T10:49:25.041Z,3.80
2023-04-21T10:51:58.827Z,3.40
2023-04-21T10:55:06.545Z,3.95
2023-04-21T10:57:35.565Z,3.50
2023-04-21T11:00:06.943Z,3.92
2023-04-21T11:02:38.130Z,3.33
2023-04-21T11:05:08.896Z,3.08
2023-04-21T11:07:36.670Z,3.17
2023-04-21T11:10:08.414Z,3.22
2023-04-21T11:12:39.052Z,3.30
2023-04-21T11:15:08.682Z,3.10
2023-04-21T11:17:39.595Z,3.03
2023-04-21T11:20:07.802Z,3.05
2023-04-21T11:22:37.588Z,3.13
2023-04-21T11:25:05.485Z,3.30
2023-04-21T11:27:32.808Z,3.15
2023-04-21T11:30:04.194Z,2.92
2023-04-21T11:32:31.573Z,3.17
2023-04-21T11:34:59.015Z,3.20
2023-04-21T11:37:27.644Z,3.10
2023-04-21T11:39:59.630Z,3.42
2023-04-21T11:42:27.304Z,3.47
2023-04-21T11:44:57.673Z,3.10
2023-04-21T11:47:28.869Z,3.28
2023-04-21T11:49:58.756Z,3.90
2023-04-21T11:52:33.001Z,3.35
2023-04-21T11:55:06.583Z,3.85
2023-04-21T11:57:34.292Z,3.83
2023-04-21T12:00:03.364Z,3.50
2023-04-21T12:02:32.802Z,3.70
2023-04-21T12:05:11.946Z,3.25
2023-04-21T12:07:42.828Z,3.30
2023-04-21T12:10:17.999Z,3.10
2023-04-21T12:12:45.945Z,3.25
2023-04-21T12:15:20.799Z,3.10
2023-04-21T12:17:49.972Z,2.50
2023-04-21T12:20:19.034Z,2.50
2023-04-21T12:22:46.784Z,2.97
2023-04-21T12:25:14.395Z,2.90
2023-04-21T12:27:52.501Z,3.50
2023-04-21T12:30:20.920Z,2.65
2023-04-21T12:32:48.473Z,2.70
2023-04-21T12:35:16.194Z,3.10
2023-04-21T12:37:45.120Z,2.92
2023-04-21T12:40:12.363Z,3.65
2023-04-21T12:42:39.596Z,3.47
2023-04-21T12:45:07.624Z,3.72
2023-04-21T12:47:36.799Z,3.75
2023-04-21T12:50:05.001Z,4.25
2023-04-21T12:52:32.277Z,3.50
2023-04-21T12:54:59.482Z,3.55
2023-04-21T12:57:26.913Z,3.60
2023-04-21T12:59:56.844Z,4.38
2023-04-21T13:02:24.419Z,4.13
2023-04-21T13:04:51.998Z,4.38
2023-04-21T13:07:22.057Z,3.50
2023-04-21T13:09:49.396Z,3.50
2023-04-21T13:12:17.231Z,3.60
2023-04-21T13:14:44.444Z,3.90
2023-04-21T13:17:11.755Z,3.60
2023-04-21T13:19:39.036Z,3.50
2023-04-21T13:22:06.351Z,3.28
2023-04-21T13:24:33.747Z,2.53
2023-04-21T13:27:04.127Z,2.95
2023-04-21T13:29:34.284Z,2.67
2023-04-21T13:32:06.494Z,2.50
2023-04-21T13:34:34.663Z,3.03
2023-04-21T13:37:02.333Z,2.35
2023-04-21T13:39:29.872Z,2.60
2023-04-21T13:41:57.967Z,2.15
2023-04-21T13:44:25.519Z,2.10
2023-04-21T13:46:53.975Z,1.63
2023-04-21T13:49:21.347Z,2.08
2023-04-21T13:51:48.607Z,1.73
2023-04-21T13:54:16.232Z,1.60
2023-04-21T13:56:43.590Z,2.00
2023-04-21T13:59:11.179Z,1.80
2023-04-21T14:01:38.557Z,1.75
2023-04-21T14:04:06.922Z,1.52
2023-04-21T14:06:34.433Z,1.80
2023-04-21T14:09:01.658Z,1.95
2023-04-21T14:11:28.968Z,2.00
2023-04-21T14:14:09.171Z,1.73
2023-04-21T14:16:38.540Z,1.88
2023-04-21T14:19:06.509Z,2.25
2023-04-21T14:21:34.037Z,2.22
2023-04-21T14:24:01.465Z,1.70
2023-04-21T14:26:28.807Z,1.85
2023-04-21T14:28:56.491Z,1.88
2023-04-21T14:31:23.895Z,2.05
2023-04-21T14:33:51.146Z,1.63
2023-04-21T14:36:18.505Z,1.50
2023-04-21T14:38:45.923Z,1.55
2023-04-21T14:41:13.430Z,1.50
2023-04-21T14:43:40.760Z,1.23
2023-04-21T14:46:08.409Z,1.38
2023-04-21T14:48:35.844Z,1.55
2023-04-21T14:51:03.580Z,1.17
2023-04-21T14:53:31.562Z,1.20
2023-04-21T14:55:58.799Z,1.33
2023-04-21T14:58:26.030Z,1.00
2023-04-21T15:00:53.236Z,1.10
2023-04-21T15:03:20.714Z,1.13
2023-04-21T15:05:48.214Z,1.33
2023-04-21T15:08:18.259Z,1.42
2023-04-21T15:10:45.716Z,1.60
2023-04-21T15:13:13.610Z,1.85
2023-04-21T15:15:41.497Z,1.20
2023-04-21T15:18:08.879Z,1.20
2023-04-21T15:20:44.691Z,1.30
2023-04-21T15:23:13.159Z,1.58
2023-04-21T15:25:41.544Z,1.60
2023-04-21T15:28:09.448Z,2.00
2023-04-21T15:30:36.879Z,1.50
2023-04-21T15:33:04.250Z,1.92
2023-04-21T15:35:31.602Z,2.42
2023-04-21T15:37:58.884Z,2.55
2023-04-21T15:40:26.937Z,2.85
2023-04-21T15:42:54.156Z,2.83
2023-04-21T15:45:22.253Z,2.45
2023-04-21T15:47:49.697Z,2.47
2023-04-21T15:50:17.117Z,2.95
2023-04-21T15:52:44.578Z,3.38
2023-04-21T15:55:12.555Z,3.05
2023-04-21T15:57:39.865Z,3.30
2023-04-21T16:00:10.016Z,2.92
2023-04-21T16:02:37.488Z,3.17
2023-04-21T16:05:05.118Z,2.63
2023-04-21T16:07:32.653Z,2.70
2023-04-21T16:10:00.312Z,3.25
2023-04-21T16:12:28.168Z,2.90
2023-04-21T16:15:01.616Z,3.22
2023-04-21T16:17:36.729Z,3.22
2023-04-21T16:20:05.642Z,2.88
2023-04-21T16:22:33.017Z,2.92
2023-04-21T16:25:00.873Z,3.20
2023-04-21T16:27:28.210Z,3.35
2023-04-21T16:29:55.835Z,2.97
2023-04-21T16:32:23.155Z,3.35
2023-04-21T16:34:50.389Z,2.90
2023-04-21T16:37:27.069Z,2.25
2023-04-21T16:39:54.923Z,2.20
2023-04-21T16:42:22.716Z,1.73
2023-04-21T16:44:59.409Z,2.00
2023-04-21T16:47:27.210Z,2.25
2023-04-21T16:49:54.985Z,2.08
2023-04-21T16:52:23.064Z,1.98
2023-04-21T16:54:51.160Z,1.90
2023-04-21T16:57:18.866Z,1.67
2023-04-21T16:59:49.497Z,1.80
2023-04-21T17:02:21.122Z,2.00
2023-04-21T17:04:48.660Z,1.77
2023-04-21T17:07:16.639Z,1.70
2023-04-21T17:09:44.534Z,2.85
2023-04-21T17:12:11.875Z,2.38
2023-04-21T17:14:40.360Z,2.47
2023-04-21T17:17:08.550Z,2.28
2023-04-21T17:19:36.734Z,2.13
2023-04-21T17:22:04.263Z,2.10
2023-04-21T17:24:45.010Z,2.20
2023-04-21T17:27:20.065Z,2.17
2023-04-21T17:29:47.850Z,2.13
2023-04-21T17:32:18.512Z,2.10
2023-04-21T17:34:46.142Z,2.22
2023-04-21T17:37:13.933Z,4.10
2023-04-21T17:39:41.545Z,4.05
2023-04-21T17:42:09.137Z,3.35
2023-04-21T17:44:37.565Z,3.33
2023-04-21T17:47:08.527Z,3.65
2023-04-21T17:49:37.390Z,3.35
2023-04-21T17:52:05.901Z,3.90
2023-04-21T17:54:33.628Z,3.78
2023-04-21T17:57:02.029Z,3.33
2023-04-21T17:59:29.568Z,3.38
2023-04-21T18:01:58.952Z,3.40
2023-04-21T18:04:27.302Z,3.58
2023-04-21T18:06:54.703Z,4.28
2023-04-21T18:09:22.197Z,3.92
2023-04-21T18:11:49.916Z,4.00
2023-04-21T18:14:17.890Z,3.42
2023-04-21T18:16:45.204Z,3.75
2023-04-21T18:19:12.526Z,4.30
2023-04-21T18:21:39.909Z,4.10
2023-04-21T18:24:07.285Z,3.45
2023-04-21T18:26:34.671Z,3.72
2023-04-21T18:29:02.856Z,4.10
2023-04-21T18:31:30.205Z,3.95
2023-04-21T18:33:57.546Z,3.90
2023-04-21T18:36:24.984Z,3.92
2023-04-21T18:38:52.213Z,4.10
2023-04-21T18:41:19.661Z,4.38
2023-04-21T18:43:47.168Z,4.45
2023-04-21T18:46:14.418Z,4.20
2023-04-21T18:48:41.724Z,4.43
2023-04-21T18:51:08.951Z,4.63
2023-04-21T18:53:36.192Z,4.57
2023-04-21T18:56:03.447Z,5.18
2023-04-21T18:58:30.665Z,4.72
2023-04-21T19:00:58.011Z,4.80
2023-04-21T19:03:26.071Z,5.00
2023-04-21T19:05:53.581Z,5.25
2023-04-21T19:08:33.854Z,5.38
2023-04-21T19:11:10.105Z,5.20
2023-04-21T19:13:37.659Z,5.00
2023-04-21T19:16:05.200Z,5.25
2023-04-21T19:18:32.778Z,5.00
2023-04-21T19:21:00.245Z,4.55
2023-04-21T19:23:27.431Z,4.88
2023-04-21T19:25:57.377Z,4.10
2023-04-21T19:28:24.656Z,3.90
2023-04-21T19:30:51.851Z,3.78
2023-04-21T19:33:19.138Z,3.17
2023-04-21T19:35:46.424Z,3.50
2023-04-21T19:38:13.823Z,3.22
2023-04-21T19:40:44.308Z,3.50
2023-04-21T19:43:11.708Z,3.55
2023-04-21T19:45:39.179Z,3.50
2023-04-21T19:48:07.375Z,3.33
2023-04-21T19:50:35.778Z,3.42
2023-04-21T19:53:03.570Z,3.70
2023-04-21T19:55:31.197Z,3.83
2023-04-21T19:57:58.698Z,4.30
2023-04-21T20:00:26.008Z,4.80
2023-04-21T20:02:53.402Z,5.22
2023-04-21T20:05:21.287Z,5.85
2023-04-21T20:07:48.840Z,5.50
2023-04-21T20:10:16.230Z,5.82
2023-04-21T20:12:43.441Z,5.53
2023-04-21T20:15:12.787Z,6.63
2023-04-21T20:17:41.604Z,6.13
2023-04-21T20:20:09.487Z,6.38
2023-04-21T20:22:36.901Z,7.18
2023-04-21T20:25:04.749Z,7.15
2023-04-21T20:27:32.114Z,7.60
2023-04-21T20:29:59.657Z,6.82
2023-04-21T20:32:26.835Z,7.57
2023-04-21T20:34:54.039Z,7.43
2023-04-21T20:37:23.068Z,7.57
2023-04-21T20:39:50.438Z,6.65
2023-04-21T20:42:19.193Z,6.63
2023-04-21T20:44:47.229Z,6.25
2023-04-21T20:47:14.652Z,6.10
2023-04-21T20:49:43.634Z,7.00
2023-04-21T20:52:11.055Z,7.85
2023-04-21T20:54:38.500Z,7.40
2023-04-21T20:57:07.641Z,7.03
2023-04-21T20:59:35.319Z,5.78
2023-04-21T21:02:02.865Z,5.90
2023-04-21T21:04:30.446Z,5.70
2023-04-21T21:06:58.221Z,5.65
2023-04-21T21:09:25.761Z,5.95
2023-04-21T21:11:53.023Z,6.20
2023-04-21T21:14:20.269Z,6.45
2023-04-21T21:16:47.597Z,6.13
2023-04-21T21:19:15.132Z,6.10
2023-04-21T21:21:42.378Z,6.03
2023-04-21T21:24:10.066Z,6.43
2023-04-21T21:26:37.813Z,5.63
2023-04-21T21:29:05.637Z,6.70
2023-04-21T21:31:33.866Z,6.55
2023-04-21T21:34:01.429Z,6.65
2023-04-21T21:36:28.703Z,6.07
2023-04-21T21:38:56.143Z,6.70
2023-04-21T21:41:23.736Z,6.50
2023-04-21T21:43:51.390Z,6.72
2023-04-21T21:46:19.000Z,6.57
2023-04-21T21:48:46.898Z,6.90
2023-04-21T21:51:14.300Z,6.78
2023-04-21T21:53:44.496Z,7.07
2023-04-21T21:56:11.953Z,6.50
2023-04-21T21:58:39.312Z,6.82
2023-04-21T22:01:07.430Z,6.40
2023-04-21T22:03:34.952Z,7.57
2023-04-21T22:06:03.822Z,7.05
2023-04-21T22:08:34.911Z,6.90
2023-04-21T22:11:03.640Z,7.18
2023-04-21T22:13:31.244Z,7.10
2023-04-21T22:15:58.531Z,7.20
2023-04-21T22:18:27.131Z,7.25
2023-04-21T22:20:54.843Z,6.63
2023-04-21T22:23:22.123Z,7.13
2023-04-21T22:25:49.462Z,8.30
2023-04-21T22:28:16.802Z,7.88
2023-04-21T22:30:44.059Z,6.32
2023-04-21T22:33:11.489Z,7.78
2023-04-21T22:35:38.765Z,7.93
2023-04-21T22:38:06.271Z,7.53
2023-04-21T22:40:33.604Z,7.32
2023-04-21T22:43:01.494Z,6.32
2023-04-21T22:45:28.961Z,6.97
2023-04-21T22:47:56.729Z,6.60
2023-04-21T22:50:24.250Z,6.63
2023-04-21T22:52:51.778Z,6.18
2023-04-21T22:55:19.061Z,5.75
2023-04-21T22:57:46.401Z,6.57
2023-04-21T23:00:14.268Z,7.18
2023-04-21T23:02:41.686Z,7.20
2023-04-21T23:05:09.398Z,6.80
2023-04-21T23:07:36.762Z,6.75
2023-04-21T23:10:04.548Z,6.80
2023-04-21T23:12:31.823Z,6.85
2023-04-21T23:14:59.027Z,6.57
2023-04-21T23:17:26.395Z,6.68
2023-04-21T23:19:55.138Z,6.43
2023-04-21T23:22:24.890Z,6.07
2023-04-21T23:24:53.414Z,6.45
2023-04-21T23:27:20.940Z,6.00
2023-04-21T23:29:48.141Z,5.82
2023-04-21T23:32:15.440Z,5.72
2023-04-21T23:34:42.727Z,6.05
2023-04-21T23:37:09.981Z,5.97
2023-04-21T23:39:37.510Z,5.93
2023-04-21T23:42:05.257Z,5.53
2023-04-21T23:44:32.546Z,5.93
2023-04-21T23:47:00.020Z,5.43
2023-04-21T23:49:27.273Z,5.65
2023-04-21T23:51:54.840Z,5.80
2023-04-21T23:54:22.086Z,5.70
2023-04-21T23:56:49.309Z,5.72
2023-04-21T23:59:16.528Z,6.40
